Timeline UpdatesTrip UpdatesNews PostsPvt PostsTravel TipsAdmin PostsConv PostsFollowed PostsChat RequestsBlog PostsPNR Posts

Disclaimer
Search
 
 
Wed Sep 24, 2014 07:57:04 ISTHomeTrainsΣChainsAtlasPNRForumGalleryNewsFAQTripsMembersLoginFeedback
No Recent News for this Train
Other Trains in the News **new
Latest...
Train leaving Muzaffarpur on 20/9/14 is diverted via Dankuni and will stop at Dakshineswar on 21/9/14 #1218323.
Thu Sep 18, 2014 (11:11PM)
⇐ Return Journey: Train# 53131

53132/Muzaffarpur Sealdah Passenger (UnReserved)

Time-Table HAS CHANGED.
Sep 18 (11:11PM)
Change Departure Station:
Change Arrival Station:
Post a Train Travel TipPost a Train Travel Tip **new
Post a Comment/Question/Picture/VideoPost a Comment/Question/Picture/Video
Pantry/Catering
✕ NO Pantry Car
✕ NO Catering
RSA - Rake Sharing
Rake/Coach Composition
ENG-SLR-GEN-GEN-GEN-GEN-GEN-GEN-GEN-SLR
Loco
WDM-2/WDM-3A from MFP to BJU, then, ASN WAM-4/WAG-5A/WAG-5HA from BJU...
Read more...
to SDAH
News    PNR    Forum    Time-Table    Availability    Fare Chart    Map    Arr/Dep History    Trips    Gallery    ΣChains    X/O    Timeline    
Travel Time: 5h 10m    16 halts    Distance: 213 km    Avg Speed: 41 km/hr
Type: Passenger
Zone: ER/Eastern
Departs @ 21:30 (Avg 1h 22m late)
Platform# ???
SMTWTFS
Asansol Junction/ASN 
Arrives @ 02:40 +1 night (Avg 22m late)
Platform# ???
SMTWTFS
Dum Dum Junction/DDJ 

16 halts. 16 intermediate Stations between Asansol Junction and Dum Dum Junction

Show ALL intermediate Stations  Show Old Time-Table

#CodeStation NameX/OArrivesAvgDepartsAvgHaltPFDay#KmSpeedElevZoneAddress
1MFPMuzaffarpur Junction (6)  -07:45 07:40+8--1-347.03057mECRMuzaffarpur, Bihar
2NRPANarayanpur Anant (3)X  07:54 07:50+1607:55 07:52+171 2m--1-342.04556mECRMuzaffarpur, Bihar
3SLTSilaut (2)  08:03 08:00+1808:04 08:02+201 2m--1-336.05257mECRMuzaffarpur, Bihar
4SIHOSiho (2)  08:12 08:10+2208:13 08:12+241 2m--1-329.05253mECRNational Highway 28, Bihar
5DOLDholi (2)X  08:21 08:20+2308:22+261 2m--1-322.045 ECRDistt. Muzaffarpur, Bihar
6DUBHDubaha (2)X  08:31 08:30+2708:32+321 2m--1-316.04455mECRDubha Station, Bihar
7KRBPKhudiram B Pusa (2)  08:41 08:43+3308:42 08:45+371 2m--1-308.04252mECRDistt. Samastipur, Bihar
8KPGMKarpurigram (3)  08:51 08:55+4308:52 08:57+491 2m--1-301.02851mECRState Highway 49, Bihar
9SPJSamastipur Junction (9)X  09:10+4709:20+4610m--1-295.04955mECRSamastipur, Bihar
10UJPUjiarpur (2)X  09:31+1:0109:32+1:041m--1-286.04551mECRSamastipur, Bihar
11NAZJNazirGanj (2)  09:40+1:0609:41+1:141m--1-280.04851mECRNazirGanj, Bihar
12DSSDalsingh Sarai (2)X  09:51+1:1709:52+1:261m21-272.030 ECR06278-221238, Bihar
13STJTSathajagat (2)  10:02+1:2510:03+1:391m--1-267.02249mECRSathajagat, Bihar
14BCABachwara Junction (3)X  10:19+1:3710:20 10:25+1:561 6m--1-261.03249mECRBegusarai, Bihar
15TGATeghra (3)X  10:42+1:4910:43+2:001m--1-252.01048mECRBegusarai, Bihar
16BJUBarauni Junction (9)X11:25+1:3611:50+1:5225m--1-245.02449mECRBegusarai, Bihar
17DKGSDinkar Gram Simaria (3) new halt!!X  12:05+3:1512:07+3:352m--1-239.02647mECRSimaria Station, Bihar
18RJORajendra Pul (1)  12:14+2:4812:15+3:031m11-236.03449mECRSimaria, Bihar
19HTZUHathidah Upper (1)X  12:22+3:0812:24+3:042m11-232.01451mECRMurarpur, Bihar
20RDUMRampur Dumra (3)X  13:14+2:3213:15+2:341m--1-220.1-1946mECRNational Highway 80, Bihar
21BRYABarhiya (3)  13:24+2:1113:25+2:151m--1-223.01947mECRBarahiya, Bihar
22MKBMankatha  13:53+2:2013:55+2:212m--1-214.03047mECRNational Highway 80, Bihar
23LKRLuckeesarai Junction (2)  14:05+2:1414:07+2:152m--1-209.0552mECRLakhisarai, Bihar
24KIULKiul Junction (5)  14:20+1:4414:30+1:4410m--1-208.03053mECRDist. Lakhisarai, Bihar
25BSQPBansipur (2)  14:38+2:2014:40+2:202m--1-204.02053mECRKiul, Bihar
26MNPMananpur (2)  14:49+2:2414:50+2:261m--1-201.01757mECRState Highway 18, Bihar
27BFMBhalui (2)X  14:57+2:2814:58+2:291m--1-199.09863mECRState Highway 18, Bihar
28JMUJamui (3)  15:09+2:3515:10+2:361m--1-181.01881mECRState Highway 72, Bihar
29CUXChaura (2)  15:20+2:3815:21+2:391m--1-178.08090mECRState Highway 18, Bihar
30GHRGidhaur (2)X  15:30+2:3715:31+2:381m--1-166.034106mECRState Highway 18, Bihar
31DPXDadpur (2)X  15:38+2:3715:39+2:391m--1-162.020116mECRDadpur, Bihar
32JAJJhajha (4)X  16:00+2:0116:10+2:0410m--1-155.044143mECRJhajha, Bihar
33NRGONarganjo Halt (2)  16:21+2:3516:22+2:351m--1-147.030188mERState Highway 18, Bihar
34STLSimultala (2)X  16:44+2:0616:45+2:081m--1-136.046247mERSimultala, Bihar
35LHBLahabon (3)  16:58+2:2916:59+2:291m--1-126.045259mERDeoghar, Jharkhand
36JSMEJasidih Junction (5)  17:19+1:5717:22+1:583m--1-111.060271mERJasidih, Jharkhand
37KBQKumrabad Rohini (2)  17:29-17:30-1m--1-104.060231mERKumrabad Rohi, Jharkhand
38SNQSankarpur (2)  17:34+2:3917:35+2:391m--1-100.047242mERDeoghar, Jharkhand
39MUWMathurapur (2)X  17:44+2:4017:45+2:401m--1-93.041261mERDeoghar, Jharkhand
40MDPMadhupur Junction (4)  18:01+1:4618:58+1:2057m--1-82.060254mER06432-224478, Jharkhand
41JRWJoramowX  19:08+1:5219:09+1:521m--1-72.051208mERBarrage on Ajoy River, Jharkhand
42MNCMadankata (2)  19:16+1:5019:17+1:501m--1-66.040208mERBarrage on Ajoy River, Jharkhand
43VDSVidyasagar (2)X  19:29+1:4419:30+1:451m--1-58.064250mERJamtara, Jharkhand
44JMTJamtara (2)  19:47+1:3819:48+1:391m21-40.047201mERJamtara, Jharkhand
45CRJChittaranjan (3)X  20:07+1:4120:10+1:453m21-25.040182mERMihijam, Jharkhand
46RNPRRupnarayanpur (3)X  20:16+1:5520:17+1:551m--1-21.052191mERChittaranjan, West Bengal
47SLSSalanpur (2)  20:25+1:5820:26+2:001m--1-14.011156mERSalanpur Station, West Bengal
48STNSitarampur Junction (5)X  20:58 20:53+1:3621:00 20:55+1:402m--1-9.034139mERG T Rd Before Asansol, West Bengal
49BCQBarachak Junction (4)  21:06 21:02+1:5121:07 21:03+1:521m--1-5.043127mERdist - bardhaman, West Bengal
50ASNAsansol Junction (7)»X  21:15 21:10+1:2321:35 21:30+1:2220m--10.064113mERDist - Bardhaman, West Bengal
51RNGRaniGanj (4)X  21:52 21:47+1:3421:56 21:51+1:404m--118.01192mERRaniganj, West Bengal
52UDLAndal Junction (6)X  22:30+1:1622:33+1:143m--125.06086mERAndal, West Bengal
53OYRWaria (4)X  22:41+1:4622:42+1:461m--133.042 ERDurgapur, West Bengal
54DGRDurgapur (5)X  22:55+1:2323:00+1:225m--142.05671mERDurgapur, West Bengal
55PANPanagarh (4)  23:17+1:4423:18+1:451m--158.06670mERKaksa, West Bengal
56KANKhana Junction (5)X  23:50+1:3423:51+1:341m--193.06542mERDist - Bardhaman, West Bengal
57BWNBarddhaman Junction (8)XO  00:03+1:3500:08+1:385m--2106.06934mERDist - Barddhaman, West Bengal
58BDCBandel Junction (7)  01:06+2:0601:11+2:065m--2173.03314mERdist - HOOGHLY, West Bengal
59HYGHooghly Ghat (2)X  01:18+2:1301:19+2:131m--2176.82217mERdist - Hooghly, West Bengal
60GFAEGarifa (2)X  01:25-01:26-1m--2179.01815mERState Highway 1, West Bengal
61NHNaihati Junction (5)X  01:36+2:1301:44+2:088m--2182.03615mERdist - North 24 paraganas - 743165, West Bengal
62KNRKankinara (3)  01:49-01:51-2m--2185.060 ERState Highway 1, West Bengal
63SNRShyamnagar (4)  01:56+5601:57+561m--2190.04516mERDist - North 24 paraganas, West Bengal
64IPIchhapur (4)X  02:01+002:02+01m--2193.05012mERIchapur, West Bengal
65BPBarrackpore (5)X  02:08+1:5802:16+1:548m22198.03012mERDist - 24 paraganas (N), West Bengal
66TGHTitagarh (4)X  02:20+1:1102:22+1:102m42200.04310mERDist - 24 paraganas ( north ), West Bengal
67DDJDum Dum Junction (5)•X  02:40+2202:41+221m--2213.01010mERKolkata - 700028, West Bengal
68SDAHKolkata Sealdah (20)X  03:25+1:02-72220.0-8mERPh : 033-23503535 (For North: APC Roy Road) Kolkata 700014, West Bengal
Scroll to Top
Scroll to Bottom